Time;durP1;ratioP1;P1;durP2;ratioP2;P2;SDS_P1;SDS_P2;PMS_P1;PMS_P2;Temp;Humidity;BMP_temperature;BMP_pressure;BME280_temperature;BME280_humidity;BME280_pressure;Samples;Min_cycle;Max_cycle;Signal;HPM_P1;HPM_P2
2024/03/25 00:02:11;;;;;;;3.23;1.67;;;;;;;;;;4810740;29;20562;-84
2024/03/25 00:05:20;;;;;;;2.83;1.40;;;;;;;;;;4799334;29;20188;-86
2024/03/25 00:08:24;;;;;;;1.63;1.33;;;;;;;;;;4809113;29;20177;-86
2024/03/25 00:11:28;;;;;;;3.23;1.40;;;;;;;;;;4810779;29;20592;-84
2024/03/25 00:14:32;;;;;;;4.37;1.83;;;;;;;;;;4810252;29;20197;-84
2024/03/25 00:17:36;;;;;;;2.27;1.30;;;;;;;;;;4809411;29;20224;-86
2024/03/25 00:20:40;;;;;;;2.00;1.63;;;;;;;;;;4798597;29;20722;-85
2024/03/25 00:23:44;;;;;;;4.80;1.70;;;;;;;;;;4809733;29;20193;-85
2024/03/25 00:26:49;;;;;;;2.17;1.43;;;;;;;;;;4809913;29;20193;-85
2024/03/25 00:29:53;;;;;;;3.57;1.40;;;;;;;;;;4809170;29;20228;-84
2024/03/25 00:32:57;;;;;;;3.03;1.70;;;;;;;;;;4798653;29;20193;-85
2024/03/25 00:36:01;;;;;;;3.90;1.70;;;;;;;;;;4819394;29;20655;-84
2024/03/25 00:39:07;;;;;;;4.87;1.60;;;;;;;;;;4808740;29;20181;-85
2024/03/25 00:42:12;;;;;;;1.90;1.20;;;;;;;;;;4808699;29;20193;-85
2024/03/25 00:45:16;;;;;;;4.33;2.10;;;;;;;;;;4809252;29;20193;-85
2024/03/25 00:48:20;;;;;;;3.37;1.63;;;;;;;;;;4808733;29;20185;-84
2024/03/25 00:51:24;;;;;;;1.50;1.40;;;;;;;;;;4808685;29;20624;-84
2024/03/25 00:54:29;;;;;;;6.53;1.80;;;;;;;;;;4809923;29;20193;-85
2024/03/25 00:57:33;;;;;;;3.50;1.90;;;;;;;;;;4809646;29;20217;-85
2024/03/25 01:00:37;;;;;;;3.53;1.73;;;;;;;;;;4798576;29;20225;-85
2024/03/25 01:03:41;;;;;;;4.43;1.93;;;;;;;;;;4819982;29;20189;-86
2024/03/25 01:06:46;;;;;;;3.20;1.67;;;;;;;;;;4810214;29;20185;-85
2024/03/25 01:09:50;;;;;;;3.77;1.70;;;;;;;;;;4809355;29;20224;-86
2024/03/25 01:12:54;;;;;;;4.03;1.80;;;;;;;;;;4819350;29;20659;-84
2024/03/25 01:15:58;;;;;;;2.50;1.87;;;;;;;;;;4809007;29;20195;-84
2024/03/25 01:19:03;;;;;;;4.60;1.97;;;;;;;;;;4809768;29;20632;-86
2024/03/25 01:22:08;;;;;;;4.27;2.03;;;;;;;;;;4812389;29;20216;-86
2024/03/25 01:25:12;;;;;;;3.77;2.40;;;;;;;;;;4801337;29;20193;-84
2024/03/25 01:28:16;;;;;;;4.10;2.00;;;;;;;;;;4811610;29;20181;-84
2024/03/25 01:31:21;;;;;;;4.87;1.90;;;;;;;;;;4811488;29;20699;-85
2024/03/25 01:34:26;;;;;;;2.20;1.70;;;;;;;;;;4812857;29;20193;-84
2024/03/25 01:37:30;;;;;;;5.57;1.80;;;;;;;;;;4810646;29;20217;-84
2024/03/25 01:40:34;;;;;;;3.53;1.83;;;;;;;;;;4810700;29;20220;-84
2024/03/25 01:43:38;;;;;;;3.70;1.90;;;;;;;;;;4822831;29;20189;-86
2024/03/25 01:46:43;;;;;;;4.87;2.20;;;;;;;;;;4811878;29;20632;-84
2024/03/25 01:49:48;;;;;;;3.83;1.80;;;;;;;;;;4800503;29;20216;-85
2024/03/25 01:52:53;;;;;;;3.17;1.57;;;;;;;;;;4811590;29;20193;-84
2024/03/25 01:55:59;;;;;;;3.47;1.90;;;;;;;;;;4812286;29;20189;-84
2024/03/25 01:59:03;;;;;;;3.67;2.00;;;;;;;;;;4811199;29;20213;-85
2024/03/25 02:02:10;;;;;;;2.33;1.70;;;;;;;;;;4821914;29;20537;-85
2024/03/25 02:05:16;;;;;;;2.90;1.90;;;;;;;;;;4812053;29;20189;-84
2024/03/25 02:08:21;;;;;;;3.97;1.93;;;;;;;;;;4811502;29;20189;-84
2024/03/25 02:11:26;;;;;;;5.07;1.87;;;;;;;;;;4810730;29;20224;-85
2024/03/25 02:14:30;;;;;;;4.73;1.60;;;;;;;;;;4810944;29;20186;-84
2024/03/25 02:17:34;;;;;;;1.87;1.60;;;;;;;;;;4811378;29;20217;-84
2024/03/25 02:20:39;;;;;;;2.87;1.70;;;;;;;;;;4810398;29;20706;-85
2024/03/25 02:23:46;;;;;;;2.00;1.50;;;;;;;;;;4810241;29;20562;-85
2024/03/25 02:26:50;;;;;;;3.80;1.63;;;;;;;;;;4821140;29;20185;-85
2024/03/25 02:30:01;;;;;;;2.97;2.07;;;;;;;;;;4810554;29;20691;-85
2024/03/25 02:33:06;;;;;;;3.23;1.60;;;;;;;;;;4809715;29;20528;-84
2024/03/25 02:36:10;;;;;;;2.63;1.30;;;;;;;;;;4820428;29;20189;-86
2024/03/25 02:39:16;;;;;;;3.50;1.83;;;;;;;;;;4810783;29;20217;-85
2024/03/25 02:42:21;;;;;;;5.13;1.90;;;;;;;;;;4820531;29;20189;-84
2024/03/25 02:45:25;;;;;;;3.83;1.50;;;;;;;;;;4800302;29;20193;-85
2024/03/25 02:48:29;;;;;;;3.97;1.80;;;;;;;;;;4810392;29;20193;-85
2024/03/25 02:51:33;;;;;;;1.93;1.67;;;;;;;;;;4809461;29;20224;-84
2024/03/25 02:54:37;;;;;;;2.93;1.83;;;;;;;;;;4809745;29;20185;-85
2024/03/25 02:57:42;;;;;;;4.17;1.67;;;;;;;;;;4810540;29;20216;-86
2024/03/25 03:00:45;;;;;;;5.03;1.60;;;;;;;;;;4811069;29;20694;-84
2024/03/25 03:03:50;;;;;;;3.27;1.60;;;;;;;;;;4810334;29;20193;-86
2024/03/25 03:06:54;;;;;;;3.93;1.60;;;;;;;;;;4809955;29;20189;-85
2024/03/25 03:09:58;;;;;;;3.80;1.97;;;;;;;;;;4810326;29;20224;-86
2024/03/25 03:13:02;;;;;;;5.40;2.00;;;;;;;;;;4809498;29;20197;-85
2024/03/25 03:16:06;;;;;;;4.23;1.70;;;;;;;;;;4809202;29;20189;-85
2024/03/25 03:19:10;;;;;;;4.63;1.97;;;;;;;;;;4799577;29;20212;-85
2024/03/25 03:22:26;;;;;;;3.60;1.70;;;;;;;;;;5095034;28;20821;-85
2024/03/25 03:25:30;;;;;;;3.90;1.83;;;;;;;;;;5083020;28;20190;-86
2024/03/25 03:28:34;;;;;;;2.63;1.60;;;;;;;;;;5083048;28;20175;-86
2024/03/25 03:31:38;;;;;;;2.90;1.90;;;;;;;;;;5094146;28;20587;-85
2024/03/25 03:34:42;;;;;;;4.03;1.97;;;;;;;;;;5093375;28;20183;-86
2024/03/25 03:37:47;;;;;;;5.20;1.87;;;;;;;;;;5093651;28;20628;-85
2024/03/25 03:41:03;;;;;;;2.80;1.90;;;;;;;;;;5081169;28;20226;-85
2024/03/25 03:44:07;;;;;;;6.23;2.27;;;;;;;;;;5093283;28;20183;-86
2024/03/25 03:47:11;;;;;;;3.13;1.97;;;;;;;;;;5093526;28;20182;-86
2024/03/25 03:50:15;;;;;;;5.30;2.00;;;;;;;;;;5093763;28;20694;-85
2024/03/25 03:53:20;;;;;;;4.20;1.83;;;;;;;;;;5093692;28;20183;-85
2024/03/25 03:56:24;;;;;;;4.70;1.97;;;;;;;;;;5081906;28;20182;-85
2024/03/25 03:59:28;;;;;;;5.67;2.30;;;;;;;;;;5081761;28;20667;-85
2024/03/25 04:02:33;;;;;;;5.90;2.37;;;;;;;;;;5093999;28;20203;-85
2024/03/25 04:05:37;;;;;;;2.23;1.80;;;;;;;;;;5093393;28;20182;-84
2024/03/25 04:08:41;;;;;;;4.37;2.43;;;;;;;;;;5082438;28;20178;-85
2024/03/25 04:11:46;;;;;;;5.20;2.50;;;;;;;;;;5093367;28;20218;-85
2024/03/25 04:14:54;;;;;;;3.07;1.90;;;;;;;;;;5094835;28;20179;-86
2024/03/25 04:17:59;;;;;;;3.90;2.47;;;;;;;;;;5094049;28;20623;-85
2024/03/25 04:21:04;;;;;;;4.83;2.40;;;;;;;;;;5094154;28;20226;-85
2024/03/25 04:24:08;;;;;;;4.83;2.03;;;;;;;;;;5092917;28;20195;-85
2024/03/25 04:27:12;;;;;;;3.07;2.10;;;;;;;;;;5070258;28;20175;-86
2024/03/25 04:30:16;;;;;;;4.87;1.83;;;;;;;;;;5094001;28;20215;-86
2024/03/25 04:33:21;;;;;;;4.33;1.90;;;;;;;;;;5071101;28;20176;-86
2024/03/25 04:36:25;;;;;;;3.47;2.13;;;;;;;;;;5080802;28;20187;-86
2024/03/25 04:39:29;;;;;;;5.27;2.23;;;;;;;;;;5079516;28;20192;-84
2024/03/25 04:42:33;;;;;;;4.63;2.20;;;;;;;;;;5068232;28;20207;-86
2024/03/25 04:45:37;;;;;;;2.90;1.93;;;;;;;;;;5080361;28;20179;-85
2024/03/25 04:48:41;;;;;;;3.37;2.00;;;;;;;;;;5079743;28;20179;-85
2024/03/25 04:51:45;;;;;;;2.50;2.03;;;;;;;;;;5079413;28;20215;-85
2024/03/25 04:54:50;;;;;;;3.43;2.00;;;;;;;;;;5078654;28;20175;-86
2024/03/25 04:57:54;;;;;;;3.80;2.23;;;;;;;;;;5078776;28;20180;-85
2024/03/25 05:00:58;;;;;;;4.47;2.37;;;;;;;;;;5078723;28;20219;-86
2024/03/25 05:04:02;;;;;;;4.17;2.03;;;;;;;;;;5056385;28;20552;-85
2024/03/25 05:07:07;;;;;;;4.10;2.10;;;;;;;;;;5079245;28;20652;-85
2024/03/25 05:10:11;;;;;;;4.63;1.97;;;;;;;;;;5067645;28;20219;-85
2024/03/25 05:13:15;;;;;;;4.00;2.03;;;;;;;;;;5055618;28;20183;-85
2024/03/25 05:16:19;;;;;;;6.83;2.33;;;;;;;;;;5078218;28;20187;-85
2024/03/25 05:19:23;;;;;;;2.67;2.17;;;;;;;;;;5077965;28;20187;-85
2024/03/25 05:22:28;;;;;;;6.00;2.30;;;;;;;;;;5078253;28;20211;-85
2024/03/25 05:25:31;;;;;;;7.63;2.40;;;;;;;;;;5078162;28;20187;-85
2024/03/25 05:28:35;;;;;;;4.77;2.53;;;;;;;;;;5079033;28;20192;-85
2024/03/25 05:31:59;;;;;;;3.30;2.37;;;;;;;;;;5055221;28;20211;-85
2024/03/25 05:35:04;;;;;;;4.93;2.37;;;;;;;;;;5078164;28;20180;-85
2024/03/25 05:38:08;;;;;;;6.70;2.53;;;;;;;;;;5079517;28;20632;-85
2024/03/25 05:41:12;;;;;;;5.07;2.80;;;;;;;;;;5079627;28;20219;-85
2024/03/25 05:44:17;;;;;;;4.73;2.63;;;;;;;;;;5075961;28;20187;-85
2024/03/25 05:47:21;;;;;;;3.57;1.90;;;;;;;;;;5065831;28;20175;-86
2024/03/25 05:50:25;;;;;;;4.77;1.90;;;;;;;;;;5077571;28;20210;-85
2024/03/25 05:53:31;;;;;;;5.50;2.20;;;;;;;;;;5078339;28;20180;-85
2024/03/25 05:56:35;;;;;;;5.20;2.30;;;;;;;;;;5054393;28;20175;-84
2024/03/25 05:59:39;;;;;;;2.87;2.17;;;;;;;;;;5077909;28;20543;-85
2024/03/25 06:02:44;;;;;;;3.37;2.37;;;;;;;;;;5065884;28;20207;-85
2024/03/25 06:05:48;;;;;;;3.50;2.30;;;;;;;;;;5077501;28;20184;-85
2024/03/25 06:08:52;;;;;;;4.17;2.40;;;;;;;;;;5077242;28;20175;-85
2024/03/25 06:11:57;;;;;;;4.37;2.30;;;;;;;;;;5077130;28;20180;-84
2024/03/25 06:15:01;;;;;;;3.93;2.50;;;;;;;;;;5076743;28;20543;-85
2024/03/25 06:18:05;;;;;;;4.77;2.60;;;;;;;;;;5076758;28;20548;-85
2024/03/25 06:21:10;;;;;;;4.03;2.57;;;;;;;;;;5065099;28;20223;-85
2024/03/25 06:24:15;;;;;;;4.13;2.90;;;;;;;;;;5078331;28;20183;-83
2024/03/25 06:27:19;;;;;;;3.70;2.40;;;;;;;;;;5077202;28;20187;-84
2024/03/25 06:37:10;;;;;;;10.23;3.97;;;;;;;;;;5077504;28;20176;-85
2024/03/25 06:40:14;;;;;;;5.07;2.70;;;;;;;;;;5064737;28;20215;-85
2024/03/25 06:43:18;;;;;;;6.30;3.40;;;;;;;;;;5077081;28;20199;-84
2024/03/25 06:46:23;;;;;;;6.53;3.33;;;;;;;;;;5076089;28;20600;-84
2024/03/25 06:49:27;;;;;;;3.53;2.67;;;;;;;;;;5077857;28;20171;-84
2024/03/25 06:52:32;;;;;;;4.03;2.57;;;;;;;;;;5076970;28;20179;-84
2024/03/25 06:55:36;;;;;;;4.00;2.60;;;;;;;;;;5079057;28;20183;-84
2024/03/25 06:58:41;;;;;;;3.30;2.40;;;;;;;;;;5076475;28;20183;-85
2024/03/25 07:01:46;;;;;;;3.30;2.10;;;;;;;;;;5076832;28;20223;-85
2024/03/25 07:04:50;;;;;;;15.03;9.03;;;;;;;;;;5064855;28;20559;-84
2024/03/25 07:07:54;;;;;;;7.27;4.20;;;;;;;;;;5076810;28;20183;-85
2024/03/25 07:10:58;;;;;;;4.77;2.60;;;;;;;;;;5075960;28;20695;-84
2024/03/25 07:14:04;;;;;;;3.70;2.43;;;;;;;;;;5077055;28;20558;-84
2024/03/25 07:17:08;;;;;;;3.77;2.10;;;;;;;;;;5065915;28;20179;-83
2024/03/25 07:20:12;;;;;;;3.83;2.00;;;;;;;;;;5076275;28;20214;-85
2024/03/25 07:23:16;;;;;;;7.77;4.43;;;;;;;;;;5076242;28;20195;-84
2024/03/25 07:26:21;;;;;;;7.67;4.53;;;;;;;;;;5077103;28;20184;-84
2024/03/25 07:29:25;;;;;;;6.70;3.00;;;;;;;;;;5075956;28;20180;-84
2024/03/25 07:32:30;;;;;;;6.80;2.90;;;;;;;;;;5076495;28;20192;-84
2024/03/25 07:35:35;;;;;;;5.47;2.47;;;;;;;;;;5076884;28;20537;-83
2024/03/25 07:38:39;;;;;;;5.13;4.00;;;;;;;;;;5076009;28;20180;-85
2024/03/25 07:41:43;;;;;;;4.40;2.77;;;;;;;;;;5075292;28;20219;-84
2024/03/25 07:44:47;;;;;;;5.00;3.33;;;;;;;;;;5075706;28;20632;-81
2024/03/25 07:47:52;;;;;;;9.97;2.30;;;;;;;;;;5076183;28;20187;-82
2024/03/25 07:50:56;;;;;;;3.47;2.30;;;;;;;;;;5076577;28;20219;-81
2024/03/25 07:54:00;;;;;;;4.37;1.93;;;;;;;;;;5077030;28;20188;-82
2024/03/25 07:57:04;;;;;;;3.67;2.60;;;;;;;;;;5076443;28;20180;-81
2024/03/25 08:00:09;;;;;;;5.67;2.50;;;;;;;;;;5077459;28;20215;-80
2024/03/25 08:03:17;;;;;;;8.17;3.10;;;;;;;;;;5066766;28;20199;-81
2024/03/25 08:06:22;;;;;;;4.80;2.57;;;;;;;;;;5079099;28;20183;-82
2024/03/25 08:09:26;;;;;;;5.93;4.00;;;;;;;;;;5082207;28;20179;-81
2024/03/25 08:12:30;;;;;;;5.43;2.47;;;;;;;;;;5081788;28;20183;-82
2024/03/25 08:15:34;;;;;;;5.33;2.90;;;;;;;;;;5070248;28;20180;-82
2024/03/25 08:18:38;;;;;;;3.87;2.00;;;;;;;;;;5081441;28;20183;-82
2024/03/25 08:21:43;;;;;;;6.43;2.20;;;;;;;;;;5080714;28;20218;-82
2024/03/25 08:24:47;;;;;;;3.60;2.13;;;;;;;;;;5080785;28;20187;-81
2024/03/25 08:27:51;;;;;;;3.20;1.70;;;;;;;;;;5068557;28;20175;-81
2024/03/25 08:30:55;;;;;;;4.20;2.10;;;;;;;;;;5081421;28;20278;-81
2024/03/25 08:33:59;;;;;;;5.27;2.60;;;;;;;;;;5080991;28;20176;-82
2024/03/25 08:37:04;;;;;;;6.83;2.47;;;;;;;;;;5068610;28;20183;-83
2024/03/25 08:40:09;;;;;;;6.23;3.13;;;;;;;;;;5080409;28;20219;-82
2024/03/25 08:43:13;;;;;;;4.13;2.63;;;;;;;;;;5080446;28;20203;-81
2024/03/25 08:46:17;;;;;;;3.77;2.33;;;;;;;;;;5068342;28;20192;-82
2024/03/25 08:49:21;;;;;;;6.77;2.73;;;;;;;;;;5069522;28;20179;-82
2024/03/25 08:52:25;;;;;;;4.27;2.37;;;;;;;;;;5080943;28;20179;-82
2024/03/25 08:55:30;;;;;;;3.70;2.30;;;;;;;;;;5081102;28;20184;-81
2024/03/25 08:58:35;;;;;;;5.63;2.37;;;;;;;;;;5080993;28;20179;-81
2024/03/25 09:01:39;;;;;;;3.83;2.50;;;;;;;;;;5069187;28;20219;-82
2024/03/25 09:04:43;;;;;;;5.73;2.57;;;;;;;;;;5068269;28;20513;-82
2024/03/25 09:07:51;;;;;;;4.47;2.43;;;;;;;;;;5080982;28;20183;-82
2024/03/25 09:11:07;;;;;;;5.53;2.80;;;;;;;;;;5080990;28;20215;-82
2024/03/25 09:14:12;;;;;;;7.00;2.57;;;;;;;;;;5081092;28;20175;-82
2024/03/25 09:17:16;;;;;;;4.07;2.70;;;;;;;;;;5080345;28;20184;-82
2024/03/25 09:20:21;;;;;;;3.90;2.17;;;;;;;;;;5081088;28;20231;-82
2024/03/25 09:23:25;;;;;;;4.33;2.30;;;;;;;;;;5068791;28;20199;-82
2024/03/25 09:26:29;;;;;;;6.50;2.90;;;;;;;;;;5074375;28;20222;-83
2024/03/25 09:29:34;;;;;;;28.27;25.33;;;;;;;;;;5064515;28;20176;-83
2024/03/25 09:32:38;;;;;;;3.17;2.87;;;;;;;;;;5064163;28;20184;-84
2024/03/25 09:35:42;;;;;;;4.53;2.30;;;;;;;;;;5075161;28;20179;-83
2024/03/25 09:38:46;;;;;;;3.60;2.03;;;;;;;;;;5073721;28;20171;-83
2024/03/25 09:41:55;;;;;;;4.27;2.10;;;;;;;;;;5062518;28;20695;-83
2024/03/25 09:45:00;;;;;;;4.33;1.90;;;;;;;;;;5076216;28;20179;-82
2024/03/25 09:48:05;;;;;;;4.50;2.07;;;;;;;;;;5074832;28;20184;-82
2024/03/25 09:51:10;;;;;;;3.63;1.83;;;;;;;;;;5088006;28;20211;-83
2024/03/25 09:54:14;;;;;;;4.80;3.53;;;;;;;;;;5065013;28;20183;-82
2024/03/25 09:57:20;;;;;;;3.73;2.77;;;;;;;;;;5073020;28;20179;-82
2024/03/25 10:00:26;;;;;;;3.47;2.10;;;;;;;;;;5072222;28;20211;-81
2024/03/25 10:03:30;;;;;;;2.93;2.17;;;;;;;;;;5083975;28;20203;-81
2024/03/25 10:06:34;;;;;;;3.37;2.10;;;;;;;;;;5083928;28;20187;-82
2024/03/25 10:09:39;;;;;;;3.47;2.33;;;;;;;;;;5074062;28;20636;-82
2024/03/25 10:12:44;;;;;;;2.93;2.27;;;;;;;;;;5086329;28;20172;-82
2024/03/25 10:15:49;;;;;;;4.27;2.57;;;;;;;;;;5072735;28;20179;-83
2024/03/25 10:18:53;;;;;;;4.00;2.20;;;;;;;;;;5072481;28;20175;-82
2024/03/25 10:22:05;;;;;;;4.07;2.30;;;;;;;;;;5083770;28;20207;-83
2024/03/25 10:25:30;;;;;;;3.47;2.40;;;;;;;;;;5087565;28;20176;-84
2024/03/25 10:28:34;;;;;;;4.97;2.50;;;;;;;;;;5088347;28;20180;-82
2024/03/25 10:31:38;;;;;;;3.43;1.80;;;;;;;;;;5078822;28;20557;-82
2024/03/25 10:34:43;;;;;;;4.70;2.10;;;;;;;;;;5068646;28;20183;-83
2024/03/25 10:37:47;;;;;;;4.40;2.23;;;;;;;;;;5080458;28;20513;-82
2024/03/25 10:40:54;;;;;;;4.20;2.00;;;;;;;;;;5068000;28;20696;-83
2024/03/25 10:44:04;;;;;;;3.00;2.20;;;;;;;;;;5088056;28;20203;-82
2024/03/25 10:47:13;;;;;;;7.17;2.40;;;;;;;;;;5089901;28;20176;-84
2024/03/25 10:50:23;;;;;;;5.50;2.40;;;;;;;;;;5083717;28;20211;-85
2024/03/25 10:53:29;;;;;;;4.30;2.50;;;;;;;;;;5086733;28;20171;-84
2024/03/25 10:56:33;;;;;;;3.83;2.20;;;;;;;;;;5085623;28;20184;-84
2024/03/25 10:59:41;;;;;;;3.20;2.17;;;;;;;;;;5073960;28;20179;-84
2024/03/25 11:02:45;;;;;;;2.37;1.73;;;;;;;;;;5086070;28;20200;-83
2024/03/25 11:05:50;;;;;;;3.03;2.20;;;;;;;;;;5081916;28;20176;-84
2024/03/25 11:08:59;;;;;;;3.03;2.20;;;;;;;;;;5085739;28;20168;-84
2024/03/25 11:12:03;;;;;;;8.37;6.03;;;;;;;;;;5058416;28;20176;-82
2024/03/25 11:15:09;;;;;;;5.20;4.20;;;;;;;;;;5069029;28;20175;-83
2024/03/25 11:18:15;;;;;;;3.00;2.10;;;;;;;;;;5082080;28;20179;-83
2024/03/25 11:21:26;;;;;;;3.03;1.60;;;;;;;;;;5080668;28;20227;-82
2024/03/25 11:24:31;;;;;;;4.33;1.80;;;;;;;;;;5080260;28;20199;-82
2024/03/25 11:27:36;;;;;;;1.97;1.77;;;;;;;;;;5068758;28;20191;-82
2024/03/25 11:30:41;;;;;;;4.03;1.80;;;;;;;;;;5070456;28;20219;-83
2024/03/25 11:33:45;;;;;;;4.23;1.70;;;;;;;;;;5069768;28;20243;-82
2024/03/25 11:36:51;;;;;;;4.90;1.90;;;;;;;;;;5081069;28;20183;-82
2024/03/25 11:40:04;;;;;;;2.40;1.73;;;;;;;;;;5081744;28;20219;-82
2024/03/25 11:43:09;;;;;;;3.10;1.87;;;;;;;;;;5085513;28;20195;-83
2024/03/25 11:46:17;;;;;;;3.03;2.03;;;;;;;;;;5086438;28;20183;-83
2024/03/25 11:49:21;;;;;;;3.20;1.70;;;;;;;;;;5063034;28;20175;-81
2024/03/25 11:52:34;;;;;;;4.33;1.90;;;;;;;;;;5084814;28;20624;-83
2024/03/25 11:55:39;;;;;;;3.17;2.00;;;;;;;;;;5087410;28;20172;-82
2024/03/25 11:58:45;;;;;;;2.60;1.77;;;;;;;;;;5086903;28;20179;-83
2024/03/25 12:01:50;;;;;;;6.00;1.77;;;;;;;;;;5075140;28;20215;-83
2024/03/25 12:04:56;;;;;;;4.57;1.70;;;;;;;;;;5072640;28;20548;-83
2024/03/25 12:08:08;;;;;;;2.70;1.60;;;;;;;;;;5083344;28;20179;-83
2024/03/25 12:11:18;;;;;;;2.43;1.80;;;;;;;;;;5084102;28;20219;-83
2024/03/25 12:14:23;;;;;;;3.20;1.50;;;;;;;;;;5084633;28;20176;-83
2024/03/25 12:17:28;;;;;;;3.97;1.80;;;;;;;;;;5083652;28;20188;-84
2024/03/25 12:20:33;;;;;;;3.43;1.80;;;;;;;;;;5072033;28;20572;-83
2024/03/25 12:23:37;;;;;;;3.07;1.50;;;;;;;;;;5071662;28;20203;-83
2024/03/25 12:26:42;;;;;;;2.57;1.70;;;;;;;;;;5072162;28;20641;-83
2024/03/25 12:29:57;;;;;;;2.27;1.70;;;;;;;;;;5071602;28;20529;-82
2024/03/25 12:33:01;;;;;;;5.40;1.70;;;;;;;;;;5083421;28;20176;-83
2024/03/25 12:36:06;;;;;;;3.17;1.47;;;;;;;;;;5071600;28;20184;-83
2024/03/25 12:39:16;;;;;;;6.57;1.90;;;;;;;;;;5072028;28;20184;-83
2024/03/25 12:42:20;;;;;;;4.60;1.53;;;;;;;;;;5059998;28;20172;-83
2024/03/25 12:45:25;;;;;;;2.10;1.37;;;;;;;;;;5082942;28;20164;-83
2024/03/25 12:48:29;;;;;;;2.30;1.40;;;;;;;;;;5072261;28;20183;-83
2024/03/25 12:51:33;;;;;;;2.60;1.43;;;;;;;;;;5086894;28;20215;-84
2024/03/25 12:54:37;;;;;;;5.47;1.30;;;;;;;;;;5086520;28;20176;-83
2024/03/25 12:57:41;;;;;;;3.07;1.37;;;;;;;;;;5075922;28;20522;-82
2024/03/25 13:00:46;;;;;;;4.17;1.60;;;;;;;;;;5085723;28;20215;-83
2024/03/25 13:03:50;;;;;;;3.37;1.97;;;;;;;;;;5074010;28;20199;-83
2024/03/25 13:06:54;;;;;;;1.80;1.40;;;;;;;;;;5074837;28;20180;-83
2024/03/25 13:09:58;;;;;;;3.03;1.20;;;;;;;;;;5086247;28;20219;-84
2024/03/25 13:13:05;;;;;;;2.40;1.50;;;;;;;;;;5075130;28;20191;-83
2024/03/25 13:16:09;;;;;;;3.53;1.67;;;;;;;;;;5075512;28;20175;-83
2024/03/25 13:19:14;;;;;;;5.23;1.80;;;;;;;;;;5063811;28;20183;-84
2024/03/25 13:22:18;;;;;;;3.33;1.60;;;;;;;;;;5086831;28;20195;-85
2024/03/25 13:25:22;;;;;;;1.93;1.47;;;;;;;;;;5087306;28;20203;-85
2024/03/25 13:28:26;;;;;;;3.30;1.60;;;;;;;;;;5088948;28;20184;-84
2024/03/25 13:31:30;;;;;;;3.07;1.60;;;;;;;;;;5089032;28;20219;-84
2024/03/25 13:34:35;;;;;;;3.90;1.33;;;;;;;;;;5076752;28;20180;-84
2024/03/25 13:37:39;;;;;;;3.10;1.43;;;;;;;;;;5077226;28;20180;-83
2024/03/25 13:40:43;;;;;;;2.37;1.53;;;;;;;;;;5088503;28;20211;-84
2024/03/25 13:43:47;;;;;;;2.90;1.50;;;;;;;;;;5089071;28;20203;-83
2024/03/25 13:46:52;;;;;;;3.87;1.80;;;;;;;;;;5075600;28;20660;-83
2024/03/25 13:50:04;;;;;;;2.97;1.70;;;;;;;;;;5075259;28;20211;-83
2024/03/25 13:53:09;;;;;;;3.53;1.50;;;;;;;;;;5085379;28;20176;-84
2024/03/25 13:56:14;;;;;;;2.57;1.60;;;;;;;;;;5074355;28;20553;-84
2024/03/25 13:59:18;;;;;;;2.97;1.57;;;;;;;;;;5086132;28;20195;-83
2024/03/25 14:02:24;;;;;;;2.10;1.40;;;;;;;;;;5085876;28;20179;-83
2024/03/25 14:05:28;;;;;;;3.40;1.60;;;;;;;;;;5084908;28;20208;-84
2024/03/25 14:08:32;;;;;;;3.23;1.40;;;;;;;;;;5074085;28;20183;-85
2024/03/25 14:11:37;;;;;;;4.13;1.70;;;;;;;;;;5081765;28;20215;-85
2024/03/25 14:14:41;;;;;;;2.60;1.20;;;;;;;;;;5082895;28;20175;-84
2024/03/25 14:17:45;;;;;;;3.57;1.53;;;;;;;;;;5082482;28;20191;-85
2024/03/25 14:20:51;;;;;;;1.57;1.30;;;;;;;;;;5081817;28;20222;-85
2024/03/25 14:23:55;;;;;;;1.83;1.27;;;;;;;;;;5081674;28;20204;-84
2024/03/25 14:27:00;;;;;;;2.83;1.57;;;;;;;;;;5081122;28;20183;-83
2024/03/25 14:30:06;;;;;;;3.97;1.73;;;;;;;;;;5062368;28;20223;-82
2024/03/25 14:33:10;;;;;;;2.47;1.60;;;;;;;;;;5050521;28;20185;-81
2024/03/25 14:36:14;;;;;;;5.30;1.80;;;;;;;;;;5062754;28;20188;-83
2024/03/25 14:39:18;;;;;;;2.20;1.37;;;;;;;;;;5064691;28;20180;-81
2024/03/25 14:42:23;;;;;;;3.30;1.50;;;;;;;;;;5064489;28;20176;-81
2024/03/25 14:45:29;;;;;;;2.20;1.00;;;;;;;;;;5063561;28;20203;-81
2024/03/25 14:48:33;;;;;;;2.17;1.43;;;;;;;;;;5050150;28;20180;-82
2024/03/25 14:51:37;;;;;;;2.83;1.60;;;;;;;;;;5061808;28;20211;-82
2024/03/25 14:54:42;;;;;;;3.47;1.47;;;;;;;;;;5058056;28;20180;-82
2024/03/25 14:57:46;;;;;;;3.87;1.30;;;;;;;;;;5057993;28;20534;-82
2024/03/25 15:00:50;;;;;;;2.93;1.10;;;;;;;;;;5046531;28;20220;-82
2024/03/25 15:03:54;;;;;;;2.27;1.23;;;;;;;;;;5058850;28;20653;-81
2024/03/25 15:06:59;;;;;;;1.77;1.30;;;;;;;;;;5069155;28;20180;-82
2024/03/25 15:10:03;;;;;;;3.93;1.60;;;;;;;;;;5058299;28;20685;-81
2024/03/25 15:13:08;;;;;;;2.77;1.50;;;;;;;;;;5057759;28;20180;-82
2024/03/25 15:16:12;;;;;;;3.57;1.40;;;;;;;;;;5045361;28;20180;-82
2024/03/25 15:19:17;;;;;;;2.60;1.37;;;;;;;;;;5056386;28;20176;-82
2024/03/25 15:22:21;;;;;;;1.80;1.40;;;;;;;;;;5057197;28;20665;-81
2024/03/25 15:25:27;;;;;;;2.50;1.40;;;;;;;;;;5067483;28;20215;-82
2024/03/25 15:28:33;;;;;;;1.77;1.30;;;;;;;;;;5056871;28;20188;-85
2024/03/25 15:31:37;;;;;;;3.23;1.40;;;;;;;;;;5056582;28;20215;-84
2024/03/25 15:34:42;;;;;;;2.27;1.10;;;;;;;;;;5034242;28;20184;-81
2024/03/25 15:37:46;;;;;;;2.53;1.30;;;;;;;;;;5056786;28;20633;-81
2024/03/25 15:40:52;;;;;;;2.33;1.33;;;;;;;;;;5057491;28;20211;-82
2024/03/25 15:43:56;;;;;;;2.23;1.40;;;;;;;;;;5057171;28;20184;-85
2024/03/25 15:47:00;;;;;;;2.20;1.37;;;;;;;;;;5060080;28;20180;-84
2024/03/25 15:50:06;;;;;;;4.10;1.30;;;;;;;;;;5055449;28;20215;-85
2024/03/25 15:53:10;;;;;;;2.00;1.37;;;;;;;;;;5056734;28;20633;-85
2024/03/25 15:56:15;;;;;;;4.13;1.47;;;;;;;;;;5045530;28;20180;-86
2024/03/25 15:59:19;;;;;;;1.60;1.30;;;;;;;;;;5056440;28;20192;-85
2024/03/25 16:02:25;;;;;;;2.93;2.03;;;;;;;;;;5044860;28;20184;-87
2024/03/25 16:05:29;;;;;;;3.37;2.03;;;;;;;;;;5044397;28;20204;-85
2024/03/25 16:08:33;;;;;;;3.83;1.70;;;;;;;;;;5059819;28;20191;-85
2024/03/25 16:11:37;;;;;;;2.73;1.40;;;;;;;;;;5076772;28;20214;-83
2024/03/25 16:14:43;;;;;;;3.03;1.50;;;;;;;;;;5068728;28;20179;-83
2024/03/25 16:17:48;;;;;;;3.07;1.90;;;;;;;;;;5074419;28;20183;-81
2024/03/25 16:20:52;;;;;;;3.23;1.60;;;;;;;;;;5073792;28;20222;-84
2024/03/25 16:23:56;;;;;;;2.03;1.60;;;;;;;;;;5063524;28;20188;-82
2024/03/25 16:27:03;;;;;;;3.00;1.50;;;;;;;;;;5074882;28;20187;-83
2024/03/25 16:30:07;;;;;;;3.40;1.50;;;;;;;;;;5079922;28;20207;-83
2024/03/25 16:33:12;;;;;;;2.77;1.43;;;;;;;;;;5053129;28;20187;-81
2024/03/25 16:36:17;;;;;;;4.87;1.83;;;;;;;;;;5079014;28;20192;-81
2024/03/25 16:39:33;;;;;;;2.97;1.73;;;;;;;;;;5089620;28;20187;-83
2024/03/25 16:53:40;;;;;;;3.60;1.70;;;;;;;;;;5089479;28;20183;-86
2024/03/25 16:56:50;;;;;;;2.97;1.67;;;;;;;;;;5074521;28;20179;-85
2024/03/25 16:59:55;;;;;;;3.33;1.70;;;;;;;;;;5072680;28;20609;-83
2024/03/25 17:02:59;;;;;;;4.67;1.50;;;;;;;;;;5081351;28;20179;-84
2024/03/25 17:06:04;;;;;;;3.97;1.47;;;;;;;;;;5084664;28;20203;-84
2024/03/25 17:09:10;;;;;;;1.90;1.00;;;;;;;;;;5063222;28;20172;-84
2024/03/25 17:12:15;;;;;;;2.87;1.20;;;;;;;;;;5062823;28;20183;-83
2024/03/25 17:15:19;;;;;;;2.43;1.43;;;;;;;;;;5086977;28;20176;-83
2024/03/25 17:18:23;;;;;;;1.90;1.20;;;;;;;;;;5087365;28;20180;-83
2024/03/25 17:21:28;;;;;;;3.53;1.37;;;;;;;;;;5087534;28;20218;-84
2024/03/25 17:24:33;;;;;;;2.03;1.10;;;;;;;;;;5064767;28;20199;-83
2024/03/25 17:27:37;;;;;;;5.37;1.50;;;;;;;;;;5064320;28;20179;-83
2024/03/25 17:30:43;;;;;;;4.53;2.00;;;;;;;;;;5065052;28;20219;-84
2024/03/25 17:33:48;;;;;;;3.27;1.50;;;;;;;;;;5076287;28;20175;-82
2024/03/25 17:36:52;;;;;;;4.77;1.43;;;;;;;;;;5075121;28;20171;-83
2024/03/25 17:39:57;;;;;;;2.80;1.23;;;;;;;;;;5087431;28;20215;-83
2024/03/25 17:43:02;;;;;;;4.37;1.13;;;;;;;;;;5076025;28;20179;-83
2024/03/25 17:46:11;;;;;;;3.60;1.00;;;;;;;;;;5062101;28;20211;-82
2024/03/25 17:49:16;;;;;;;4.37;1.50;;;;;;;;;;5076517;28;20184;-84
2024/03/25 17:52:20;;;;;;;1.87;1.07;;;;;;;;;;5066045;28;20183;-83
2024/03/25 17:55:24;;;;;;;2.37;1.43;;;;;;;;;;5078345;28;20176;-83
2024/03/25 17:58:29;;;;;;;4.03;1.30;;;;;;;;;;5087822;28;20622;-84
2024/03/25 18:01:33;;;;;;;3.53;1.30;;;;;;;;;;5063530;28;20210;-82
2024/03/25 18:04:38;;;;;;;1.50;1.23;;;;;;;;;;5085913;28;20184;-82
2024/03/25 18:07:43;;;;;;;2.60;1.50;;;;;;;;;;5087797;28;20187;-83
2024/03/25 18:10:47;;;;;;;5.07;1.50;;;;;;;;;;5085835;28;20211;-83
2024/03/25 18:13:51;;;;;;;3.73;1.70;;;;;;;;;;5064613;28;20184;-83
2024/03/25 18:16:56;;;;;;;3.80;1.60;;;;;;;;;;5065948;28;20183;-83
2024/03/25 18:20:00;;;;;;;1.87;1.40;;;;;;;;;;5066794;28;20216;-84
2024/03/25 18:23:04;;;;;;;2.90;1.20;;;;;;;;;;5067201;28;20196;-83
2024/03/25 18:26:09;;;;;;;4.00;1.60;;;;;;;;;;5067007;28;20204;-85
2024/03/25 18:29:13;;;;;;;3.40;1.73;;;;;;;;;;5057162;28;20180;-83
2024/03/25 18:32:18;;;;;;;3.53;1.70;;;;;;;;;;5067247;28;20181;-84
2024/03/25 18:35:22;;;;;;;3.60;1.70;;;;;;;;;;5071492;28;20172;-84
2024/03/25 18:38:27;;;;;;;3.37;1.70;;;;;;;;;;5061068;28;20168;-84
2024/03/25 18:41:32;;;;;;;2.87;2.07;;;;;;;;;;5047595;28;20211;-83
2024/03/25 18:44:37;;;;;;;1.90;1.63;;;;;;;;;;5069405;28;20172;-83
2024/03/25 18:47:42;;;;;;;1.90;1.50;;;;;;;;;;5069821;28;20184;-84